createdAt,value
2022-10-02T00:00:31.712Z,10.60
2022-10-02T00:03:12.226Z,10.60
2022-10-02T00:05:45.724Z,10.50
2022-10-02T00:08:14.924Z,10.60
2022-10-02T00:10:46.890Z,10.50
2022-10-02T00:13:22.881Z,10.50
2022-10-02T00:15:49.951Z,10.50
2022-10-02T00:18:20.101Z,10.50
2022-10-02T00:20:55.894Z,10.50
2022-10-02T00:23:39.539Z,10.40
2022-10-02T00:26:09.159Z,10.40
2022-10-02T00:28:43.368Z,10.40
2022-10-02T00:31:15.435Z,10.50
2022-10-02T00:33:48.473Z,10.50
2022-10-02T00:36:20.415Z,10.40
2022-10-02T00:38:54.983Z,10.40
2022-10-02T00:41:36.510Z,10.40
2022-10-02T00:44:25.496Z,10.40
2022-10-02T00:47:09.634Z,10.40
2022-10-02T00:49:41.598Z,10.40
2022-10-02T00:52:24.555Z,10.30
2022-10-02T00:55:00.555Z,10.20
2022-10-02T00:57:50.537Z,10.20
2022-10-02T01:00:21.003Z,10.20
2022-10-02T01:02:47.471Z,10.30
2022-10-02T01:05:14.532Z,10.30
2022-10-02T01:07:42.260Z,10.30
2022-10-02T01:10:12.583Z,10.30
2022-10-02T01:12:39.678Z,10.30
2022-10-02T01:15:21.817Z,10.30
2022-10-02T01:17:54.610Z,10.30
2022-10-02T01:20:44.388Z,10.30
2022-10-02T01:23:39.194Z,10.30
2022-10-02T01:26:06.068Z,10.30
2022-10-02T01:28:32.743Z,10.30
2022-10-02T01:31:07.641Z,10.30
2022-10-02T01:33:35.063Z,10.20
2022-10-02T01:36:04.002Z,10.20
2022-10-02T01:38:33.551Z,10.10
2022-10-02T01:41:00.195Z,10.20
2022-10-02T01:43:35.609Z,10.10
2022-10-02T01:46:02.166Z,10.00
2022-10-02T01:48:47.498Z,9.90
2022-10-02T01:51:32.176Z,9.90
2022-10-02T01:54:01.432Z,10.00
2022-10-02T01:56:46.459Z,10.00
2022-10-02T01:59:18.482Z,10.00
2022-10-02T02:02:08.353Z,10.00
2022-10-02T02:04:51.161Z,10.00
2022-10-02T02:07:35.464Z,10.00
2022-10-02T02:10:05.094Z,10.00
2022-10-02T02:12:47.387Z,9.90
2022-10-02T02:15:21.058Z,9.90
2022-10-02T02:17:47.574Z,9.90
2022-10-02T02:20:17.459Z,9.90
2022-10-02T02:22:45.622Z,9.90
2022-10-02T02:25:15.278Z,10.00
2022-10-02T02:27:45.544Z,10.00
2022-10-02T02:30:17.637Z,10.00
2022-10-02T02:32:50.630Z,10.00
2022-10-02T02:35:30.499Z,10.00
2022-10-02T02:38:01.777Z,10.00
2022-10-02T02:40:30.399Z,10.10
2022-10-02T02:42:59.763Z,10.10
2022-10-02T02:45:32.715Z,10.10
2022-10-02T02:48:03.166Z,10.10
2022-10-02T02:50:43.679Z,10.10
2022-10-02T02:53:13.950Z,10.00
2022-10-02T02:55:45.793Z,10.00
2022-10-02T02:58:12.670Z,10.00
2022-10-02T03:00:39.612Z,10.10
2022-10-02T03:03:07.041Z,10.10
2022-10-02T03:05:34.271Z,10.10
2022-10-02T03:08:05.131Z,10.10
2022-10-02T03:10:31.646Z,10.10
2022-10-02T03:13:22.291Z,10.10
2022-10-02T03:16:03.894Z,10.10
2022-10-02T03:18:48.071Z,10.10
2022-10-02T03:21:23.916Z,10.10
2022-10-02T03:23:53.615Z,10.10
2022-10-02T03:26:26.205Z,10.10
2022-10-02T03:28:57.419Z,10.20
2022-10-02T03:31:25.489Z,10.20
2022-10-02T03:33:54.706Z,10.20
2022-10-02T03:36:22.051Z,10.20
2022-10-02T03:39:00.783Z,10.20
2022-10-02T03:41:32.999Z,10.30
2022-10-02T03:43:59.525Z,10.20
2022-10-02T03:46:26.163Z,10.30
2022-10-02T03:48:52.776Z,10.20
2022-10-02T03:51:19.288Z,10.20
2022-10-02T03:53:48.200Z,10.20
2022-10-02T03:56:35.191Z,10.20
2022-10-02T03:59:02.847Z,10.20
2022-10-02T04:01:35.306Z,10.30
2022-10-02T04:04:04.318Z,10.30
2022-10-02T04:06:40.020Z,10.30
2022-10-02T04:09:10.720Z,10.30
2022-10-02T04:11:43.082Z,10.30
2022-10-02T04:14:16.282Z,10.40
2022-10-02T04:16:48.889Z,10.40
2022-10-02T04:19:33.396Z,10.30
2022-10-02T04:22:05.768Z,10.30
2022-10-02T04:24:45.545Z,10.20
2022-10-02T04:27:12.039Z,10.10
2022-10-02T04:29:43.471Z,10.10
2022-10-02T04:32:14.775Z,10.00
2022-10-02T04:34:41.724Z,10.00
2022-10-02T04:37:11.409Z,10.00
2022-10-02T04:39:52.077Z,10.00
2022-10-02T04:42:35.207Z,10.10
2022-10-02T04:45:04.706Z,10.10
2022-10-02T04:47:34.025Z,10.10
2022-10-02T04:50:12.627Z,10.10
2022-10-02T04:52:47.534Z,10.20
2022-10-02T04:55:39.750Z,10.20
2022-10-02T04:58:20.761Z,10.20
2022-10-02T05:00:50.463Z,10.30
2022-10-02T05:03:17.042Z,10.30
2022-10-02T05:06:07.665Z,10.30
2022-10-02T05:08:44.140Z,10.20
2022-10-02T05:11:19.675Z,10.20
2022-10-02T05:13:49.128Z,10.20
2022-10-02T05:16:35.018Z,10.30
2022-10-02T05:19:04.952Z,10.30
2022-10-02T05:21:40.757Z,10.30
2022-10-02T05:24:16.380Z,10.30
2022-10-02T05:26:58.028Z,10.30
2022-10-02T05:29:24.570Z,10.30
2022-10-02T05:32:17.202Z,10.30
2022-10-02T05:34:53.178Z,10.30
2022-10-02T05:37:28.775Z,10.30
2022-10-02T05:39:58.310Z,10.30
2022-10-02T05:42:29.469Z,10.40
2022-10-02T05:45:14.770Z,10.40
2022-10-02T05:47:48.328Z,10.40
2022-10-02T05:50:18.906Z,10.40
2022-10-02T05:52:45.573Z,10.40
2022-10-02T05:55:19.197Z,10.40
2022-10-02T05:57:45.673Z,10.40
2022-10-02T06:00:19.780Z,10.50
2022-10-02T06:03:05.575Z,10.50
2022-10-02T06:05:48.244Z,10.60
2022-10-02T06:08:18.081Z,10.60
2022-10-02T06:10:59.069Z,10.60
2022-10-02T06:13:43.186Z,10.70
2022-10-02T06:16:14.295Z,10.70
2022-10-02T06:18:43.737Z,10.70
2022-10-02T06:21:14.727Z,10.70
2022-10-02T06:23:48.331Z,10.70
2022-10-02T06:26:33.111Z,10.80
2022-10-02T06:29:03.754Z,10.80
2022-10-02T06:31:45.714Z,10.90
2022-10-02T06:34:12.934Z,10.90
2022-10-02T06:36:39.730Z,10.90
2022-10-02T06:39:06.626Z,11.00
2022-10-02T06:41:47.974Z,11.00
2022-10-02T06:44:29.825Z,11.10
2022-10-02T06:47:15.250Z,11.10
2022-10-02T06:50:14.925Z,11.10
2022-10-02T06:52:50.705Z,11.20
2022-10-02T06:55:35.831Z,11.20
2022-10-02T06:58:03.431Z,11.30
2022-10-02T07:00:32.391Z,11.40
2022-10-02T07:02:59.545Z,11.40
2022-10-02T07:05:32.282Z,11.40
2022-10-02T07:07:58.805Z,11.50
2022-10-02T07:10:26.023Z,11.50
2022-10-02T07:12:55.680Z,11.60
2022-10-02T07:15:40.280Z,11.70
2022-10-02T07:18:15.374Z,11.70
2022-10-02T07:21:02.142Z,11.80
2022-10-02T07:23:38.031Z,11.90
2022-10-02T07:26:30.634Z,11.90
2022-10-02T07:29:05.818Z,12.00
2022-10-02T07:31:48.441Z,12.10
2022-10-02T07:34:36.097Z,12.10
2022-10-02T07:37:14.050Z,12.30
2022-10-02T07:39:59.335Z,12.30
2022-10-02T07:42:34.877Z,12.40
2022-10-02T07:45:04.369Z,12.40
2022-10-02T07:47:44.674Z,12.40
2022-10-02T07:50:30.002Z,12.50
2022-10-02T07:53:13.815Z,12.50
2022-10-02T07:55:41.494Z,12.60
2022-10-02T07:58:14.369Z,12.60
2022-10-02T08:00:50.168Z,12.70
2022-10-02T08:03:16.755Z,12.70
2022-10-02T08:05:51.976Z,12.70
2022-10-02T08:08:50.982Z,12.70
2022-10-02T08:11:24.561Z,12.80
2022-10-02T08:13:52.715Z,12.90
2022-10-02T08:16:23.401Z,12.90
2022-10-02T08:18:55.550Z,12.90
2022-10-02T08:21:24.332Z,12.90
2022-10-02T08:23:55.007Z,12.90
2022-10-02T08:26:26.539Z,13.00
2022-10-02T08:28:56.826Z,13.00
2022-10-02T08:31:23.915Z,13.10
2022-10-02T08:33:51.310Z,13.10
2022-10-02T08:36:18.350Z,13.10
2022-10-02T08:38:54.621Z,13.20
2022-10-02T08:41:30.673Z,13.20
2022-10-02T08:44:11.979Z,13.20
2022-10-02T08:46:41.274Z,13.20
2022-10-02T08:49:17.047Z,13.20
2022-10-02T08:51:58.159Z,13.30
2022-10-02T08:54:24.662Z,13.30
2022-10-02T08:56:55.010Z,13.40
2022-10-02T08:59:26.472Z,13.40
2022-10-02T09:02:04.543Z,13.50
2022-10-02T09:04:31.241Z,13.50
2022-10-02T09:07:03.774Z,13.60
2022-10-02T09:09:53.593Z,13.70
2022-10-02T09:12:26.065Z,13.70
2022-10-02T09:14:59.037Z,13.80
2022-10-02T09:17:41.976Z,13.80
2022-10-02T09:20:27.442Z,13.80
2022-10-02T09:22:55.134Z,13.80
2022-10-02T09:25:24.578Z,13.80
2022-10-02T09:28:04.030Z,13.80
2022-10-02T09:30:42.073Z,13.90
2022-10-02T09:33:11.633Z,13.90
2022-10-02T09:35:55.693Z,13.90
2022-10-02T09:38:27.151Z,13.90
2022-10-02T09:41:20.080Z,13.90
2022-10-02T09:44:06.222Z,13.90
2022-10-02T09:46:52.768Z,13.90
2022-10-02T09:49:42.218Z,14.00
2022-10-02T09:52:11.852Z,13.90
2022-10-02T09:54:51.329Z,14.00
2022-10-02T09:57:20.920Z,14.00
2022-10-02T10:00:08.801Z,14.10
2022-10-02T10:02:53.998Z,14.10
2022-10-02T10:05:39.284Z,14.20
2022-10-02T10:08:24.686Z,14.20
2022-10-02T10:11:17.350Z,14.20
2022-10-02T10:13:46.048Z,14.20
2022-10-02T10:16:22.017Z,14.20
2022-10-02T10:19:07.557Z,14.20
2022-10-02T10:21:40.455Z,14.20
2022-10-02T10:24:15.541Z,14.20
2022-10-02T10:27:00.755Z,14.20
2022-10-02T10:29:45.850Z,14.20
2022-10-02T10:32:15.432Z,14.20
2022-10-02T10:35:08.371Z,14.20
2022-10-02T10:38:13.743Z,14.20
2022-10-02T10:40:50.856Z,14.30
2022-10-02T10:43:22.870Z,14.30
2022-10-02T10:46:08.131Z,14.30
2022-10-02T10:48:54.134Z,14.30
2022-10-02T10:51:23.689Z,14.40
2022-10-02T10:54:01.020Z,14.40
2022-10-02T10:56:37.043Z,14.50
2022-10-02T10:59:25.280Z,14.50
2022-10-02T11:01:52.339Z,14.50
2022-10-02T11:04:32.333Z,14.60
2022-10-02T11:06:58.855Z,14.60
2022-10-02T11:09:33.716Z,14.70
2022-10-02T11:14:47.586Z,14.80
2022-10-02T11:17:32.767Z,14.80
2022-10-02T11:20:17.766Z,14.90
2022-10-02T11:22:59.299Z,14.90
2022-10-02T11:25:44.875Z,15.00
2022-10-02T11:28:25.420Z,15.00
2022-10-02T11:31:00.904Z,15.00
2022-10-02T11:33:40.458Z,15.00
2022-10-02T11:36:23.981Z,15.00
2022-10-02T11:39:13.764Z,15.10
2022-10-02T11:41:49.259Z,15.10
2022-10-02T11:44:16.791Z,15.10
2022-10-02T11:46:52.133Z,15.10
2022-10-02T11:49:27.797Z,15.10
2022-10-02T11:51:54.324Z,15.20
2022-10-02T11:54:40.640Z,15.20
2022-10-02T11:57:29.106Z,15.20
2022-10-02T12:00:05.688Z,15.20
2022-10-02T12:02:38.709Z,15.20
2022-10-02T12:05:19.264Z,15.20
2022-10-02T12:07:53.276Z,15.20
2022-10-02T12:10:28.658Z,15.20
2022-10-02T12:13:24.555Z,15.20
2022-10-02T12:15:54.610Z,15.20
2022-10-02T12:18:28.972Z,15.20
2022-10-02T12:21:20.334Z,15.30
2022-10-02T12:24:11.429Z,15.30
2022-10-02T12:26:56.800Z,15.30
2022-10-02T12:29:44.547Z,15.40
2022-10-02T12:32:16.329Z,15.50
2022-10-02T12:34:46.405Z,15.40
2022-10-02T12:37:12.946Z,15.40
2022-10-02T12:39:48.973Z,15.50
2022-10-02T12:42:34.373Z,15.50
2022-10-02T12:45:00.931Z,15.50
2022-10-02T12:47:38.405Z,15.50
2022-10-02T12:50:23.807Z,15.50
2022-10-02T12:53:03.906Z,15.50
2022-10-02T12:55:49.426Z,15.60
2022-10-02T12:58:18.362Z,15.60
2022-10-02T13:00:45.054Z,15.60
2022-10-02T13:03:11.632Z,15.60
2022-10-02T13:05:44.617Z,15.60
2022-10-02T13:08:22.532Z,15.70
2022-10-02T13:10:57.316Z,15.70
2022-10-02T13:13:24.783Z,15.70
2022-10-02T13:15:58.347Z,15.70
2022-10-02T13:18:43.408Z,15.70
2022-10-02T13:21:16.061Z,15.70
2022-10-02T13:23:50.788Z,15.80
2022-10-02T13:26:36.041Z,15.80
2022-10-02T13:29:05.564Z,15.80
2022-10-02T13:31:43.078Z,15.80
2022-10-02T13:34:17.923Z,15.80
2022-10-02T13:37:02.586Z,15.80
2022-10-02T13:39:50.057Z,15.80
2022-10-02T13:42:36.980Z,15.90
2022-10-02T13:45:03.696Z,15.90
2022-10-02T13:47:48.872Z,16.00
2022-10-02T13:50:34.575Z,16.00
2022-10-02T13:53:04.233Z,16.10
2022-10-02T13:55:48.628Z,16.10
2022-10-02T13:58:30.822Z,16.20
2022-10-02T14:01:04.422Z,16.20
2022-10-02T14:03:36.199Z,16.20
2022-10-02T14:06:15.066Z,16.20
2022-10-02T14:09:06.471Z,16.30
2022-10-02T14:11:53.278Z,16.30
2022-10-02T14:14:26.359Z,16.40
2022-10-02T14:17:02.082Z,16.40
2022-10-02T14:19:28.643Z,16.40
2022-10-02T14:22:04.218Z,16.40
2022-10-02T14:25:04.178Z,16.30
2022-10-02T14:27:42.840Z,16.20
2022-10-02T14:30:19.876Z,16.30
2022-10-02T14:32:52.142Z,16.20
2022-10-02T14:35:32.422Z,16.30
2022-10-02T14:38:17.825Z,16.20
2022-10-02T14:40:54.575Z,16.20
2022-10-02T14:43:39.274Z,16.10
2022-10-02T14:46:18.096Z,16.10
2022-10-02T14:49:03.761Z,16.10
2022-10-02T14:51:43.107Z,16.10
2022-10-02T14:54:24.372Z,16.00
2022-10-02T14:57:01.249Z,16.00
2022-10-02T14:59:30.790Z,16.00
2022-10-02T15:02:18.658Z,16.00
2022-10-02T15:05:04.234Z,16.00
2022-10-02T15:07:32.972Z,15.90
2022-10-02T15:10:17.762Z,15.90
2022-10-02T15:12:49.709Z,15.90
2022-10-02T15:15:21.045Z,15.90
2022-10-02T15:18:06.118Z,15.90
2022-10-02T15:20:51.303Z,15.80
2022-10-02T15:23:38.918Z,15.80
2022-10-02T15:26:33.221Z,15.80
2022-10-02T15:29:02.250Z,15.80
2022-10-02T15:31:44.154Z,15.80
2022-10-02T15:34:10.819Z,15.80
2022-10-02T15:36:37.359Z,15.80
2022-10-02T15:39:22.577Z,15.80
2022-10-02T15:42:02.588Z,15.80
2022-10-02T15:44:39.368Z,15.70
2022-10-02T15:47:19.566Z,15.80
2022-10-02T15:50:04.914Z,15.70
2022-10-02T15:52:34.508Z,15.70
2022-10-02T15:55:06.897Z,15.70
2022-10-02T15:57:58.771Z,15.70
2022-10-02T16:00:27.142Z,15.70
2022-10-02T16:03:14.791Z,15.70
2022-10-02T16:05:51.074Z,15.70
2022-10-02T16:08:42.149Z,15.70
2022-10-02T16:11:17.550Z,15.60
2022-10-02T16:13:51.169Z,15.60
2022-10-02T16:16:23.612Z,15.60
2022-10-02T16:18:50.358Z,15.50
2022-10-02T16:21:38.320Z,15.50
2022-10-02T16:24:23.839Z,15.50
2022-10-02T16:27:02.244Z,15.40
2022-10-02T16:29:47.665Z,15.40
2022-10-02T16:32:19.661Z,15.30
2022-10-02T16:35:06.925Z,15.30
2022-10-02T16:37:39.543Z,15.30
2022-10-02T16:40:26.780Z,15.30
2022-10-02T16:42:53.367Z,15.20
2022-10-02T16:45:32.584Z,15.20
2022-10-02T16:48:07.629Z,15.20
2022-10-02T16:50:53.070Z,15.20
2022-10-02T16:53:31.925Z,15.10
2022-10-02T16:56:06.563Z,15.10
2022-10-02T16:58:42.039Z,15.10
2022-10-02T17:01:15.564Z,15.10
2022-10-02T17:03:47.589Z,15.00
2022-10-02T17:06:26.681Z,15.00
2022-10-02T17:09:09.617Z,15.00
2022-10-02T17:11:56.075Z,15.00
2022-10-02T17:14:31.460Z,14.90
2022-10-02T17:17:01.667Z,14.90
2022-10-02T17:19:33.422Z,14.80
2022-10-02T17:22:02.765Z,14.70
2022-10-02T17:24:51.154Z,14.70
2022-10-02T17:27:32.698Z,14.70
2022-10-02T17:30:08.150Z,14.60
2022-10-02T17:32:46.973Z,14.60
2022-10-02T17:35:18.344Z,14.50
2022-10-02T17:37:53.985Z,14.50
2022-10-02T17:40:33.061Z,14.40
2022-10-02T17:43:01.126Z,14.40
2022-10-02T17:45:50.759Z,14.40
2022-10-02T17:48:27.309Z,14.40
2022-10-02T17:50:56.243Z,14.40
2022-10-02T17:53:41.234Z,14.30
2022-10-02T17:56:27.880Z,14.30
2022-10-02T17:58:56.462Z,14.30
2022-10-02T18:01:31.385Z,14.30
2022-10-02T18:04:17.012Z,14.30
2022-10-02T18:06:43.503Z,14.30
2022-10-02T18:09:19.186Z,14.40
2022-10-02T18:12:15.131Z,14.40
2022-10-02T18:14:57.313Z,14.40
2022-10-02T18:17:29.744Z,14.30
2022-10-02T18:20:04.022Z,14.30
2022-10-02T18:22:35.824Z,14.40
2022-10-02T18:25:02.384Z,14.40
2022-10-02T18:27:32.029Z,14.40
2022-10-02T18:30:08.706Z,14.30
2022-10-02T18:32:41.041Z,14.30
2022-10-02T18:35:15.213Z,14.30
2022-10-02T18:37:58.849Z,14.30
2022-10-02T18:40:30.611Z,14.30
2022-10-02T18:43:09.104Z,14.20
2022-10-02T18:45:47.520Z,14.10
2022-10-02T18:48:29.322Z,14.10
2022-10-02T18:51:02.034Z,14.10
2022-10-02T18:53:46.839Z,14.10
2022-10-02T18:56:19.793Z,14.10
2022-10-02T18:58:54.669Z,14.10
2022-10-02T19:01:36.281Z,14.10
2022-10-02T19:04:06.412Z,14.00
2022-10-02T19:06:34.426Z,14.00
2022-10-02T19:09:00.918Z,14.00
2022-10-02T19:11:28.959Z,14.00
2022-10-02T19:13:55.766Z,14.00
2022-10-02T19:16:26.018Z,13.90
2022-10-02T19:19:06.185Z,13.90
2022-10-02T19:21:34.510Z,13.80
2022-10-02T19:24:04.051Z,13.80
2022-10-02T19:26:33.068Z,13.80
2022-10-02T19:29:21.863Z,13.80
2022-10-02T19:31:51.963Z,13.70
2022-10-02T19:34:24.278Z,13.70
2022-10-02T19:36:53.070Z,13.70
2022-10-02T19:39:33.841Z,13.70
2022-10-02T19:42:10.540Z,13.70
2022-10-02T19:44:44.861Z,13.70
2022-10-02T19:47:16.697Z,13.70
2022-10-02T19:49:46.721Z,13.60
2022-10-02T19:52:35.841Z,13.60
2022-10-02T19:55:24.763Z,13.60
2022-10-02T19:57:54.424Z,13.60
2022-10-02T20:00:23.468Z,13.50
2022-10-02T20:02:54.395Z,13.50
2022-10-02T20:05:31.493Z,13.50
2022-10-02T20:08:05.722Z,13.40
2022-10-02T20:10:33.293Z,13.40
2022-10-02T20:13:06.214Z,13.40
2022-10-02T20:16:15.397Z,13.40
2022-10-02T20:18:41.990Z,13.40
2022-10-02T20:21:24.813Z,13.30
2022-10-02T20:23:57.064Z,13.30
2022-10-02T20:26:29.402Z,13.30
2022-10-02T20:29:02.621Z,13.20
2022-10-02T20:31:35.504Z,13.20
2022-10-02T20:34:05.212Z,13.20
2022-10-02T20:36:47.885Z,13.20
2022-10-02T20:39:19.683Z,13.10
2022-10-02T20:41:57.250Z,13.10
2022-10-02T20:44:26.919Z,13.10
2022-10-02T20:47:02.031Z,13.00
2022-10-02T20:49:49.390Z,13.00
2022-10-02T20:52:15.923Z,13.00
2022-10-02T20:54:42.407Z,12.90
2022-10-02T20:57:49.650Z,12.90
2022-10-02T21:00:20.951Z,12.80
2022-10-02T21:02:56.031Z,12.80
2022-10-02T21:05:31.100Z,12.80
2022-10-02T21:07:57.619Z,12.70
2022-10-02T21:10:25.346Z,12.60
2022-10-02T21:13:00.919Z,12.60
2022-10-02T21:15:53.642Z,12.50
2022-10-02T21:18:32.443Z,12.60
2022-10-02T21:21:19.216Z,12.50
2022-10-02T21:24:04.727Z,12.50
2022-10-02T21:26:39.944Z,12.40
2022-10-02T21:29:19.099Z,12.40
2022-10-02T21:31:45.999Z,12.40
2022-10-02T21:34:41.444Z,12.40
2022-10-02T21:37:26.579Z,12.40
2022-10-02T21:40:06.541Z,12.30
2022-10-02T21:42:42.040Z,12.30
2022-10-02T21:45:30.406Z,12.30
2022-10-02T21:48:04.475Z,12.20
2022-10-02T21:50:31.611Z,12.20
2022-10-02T21:53:23.801Z,12.20
2022-10-02T21:56:09.354Z,12.10
2022-10-02T21:58:41.748Z,12.10
2022-10-02T22:01:17.446Z,12.00
2022-10-02T22:03:45.557Z,12.00
2022-10-02T22:06:18.160Z,12.00
2022-10-02T22:08:51.434Z,11.90
2022-10-02T22:11:31.977Z,11.90
2022-10-02T22:14:04.228Z,11.90
2022-10-02T22:16:34.498Z,11.90
2022-10-02T22:19:01.011Z,11.90
2022-10-02T22:21:36.522Z,11.80
2022-10-02T22:24:06.416Z,11.80
2022-10-02T22:26:46.024Z,11.80
2022-10-02T22:29:19.699Z,11.80
2022-10-02T22:31:55.012Z,11.70
2022-10-02T22:34:35.578Z,11.70
2022-10-02T22:37:17.415Z,11.70
2022-10-02T22:39:54.823Z,11.70
2022-10-02T22:42:27.316Z,11.60
2022-10-02T22:44:59.234Z,11.60
2022-10-02T22:47:59.822Z,11.50
2022-10-02T22:51:03.143Z,11.50
2022-10-02T22:53:33.170Z,11.50
2022-10-02T22:55:59.798Z,11.40
2022-10-02T22:58:34.587Z,11.40
2022-10-02T23:01:19.697Z,11.30
2022-10-02T23:03:52.038Z,11.30
2022-10-02T23:06:41.197Z,11.30
2022-10-02T23:09:15.707Z,11.20
2022-10-02T23:11:45.085Z,11.20
2022-10-02T23:14:19.442Z,11.10
2022-10-02T23:17:01.520Z,11.10
2022-10-02T23:19:32.545Z,11.00
2022-10-02T23:22:22.294Z,11.00
2022-10-02T23:24:53.025Z,11.00
2022-10-02T23:27:22.213Z,11.00
2022-10-02T23:30:07.627Z,10.90
2022-10-02T23:32:40.152Z,10.90
2022-10-02T23:35:12.890Z,10.90
2022-10-02T23:37:44.314Z,10.90
2022-10-02T23:40:13.877Z,10.90
2022-10-02T23:42:46.798Z,10.80
2022-10-02T23:45:16.350Z,10.90
2022-10-02T23:47:48.638Z,10.80
2022-10-02T23:50:22.651Z,10.80
2022-10-02T23:52:57.690Z,10.80
2022-10-02T23:55:27.237Z,10.80
2022-10-02T23:58:02.934Z,10.80
